createdAt,value
2022-11-09T00:01:43.637Z,99843.69
2022-11-09T00:04:11.045Z,99842.00
2022-11-09T00:06:37.869Z,99836.78
2022-11-09T00:09:08.144Z,99829.75
2022-11-09T00:11:36.840Z,99824.44
2022-11-09T00:14:03.877Z,99828.84
2022-11-09T00:16:30.720Z,99824.41
2022-11-09T00:18:57.351Z,99834.16
2022-11-09T00:21:25.123Z,99823.50
2022-11-09T00:23:52.627Z,99822.53
2022-11-09T00:26:20.404Z,99833.16
2022-11-09T00:28:47.424Z,99821.56
2022-11-09T00:31:17.545Z,99827.75
2022-11-09T00:33:49.494Z,99829.50
2022-11-09T00:36:16.433Z,99834.84
2022-11-09T00:38:43.439Z,99818.84
2022-11-09T00:41:11.493Z,99818.84
2022-11-09T00:43:38.520Z,99812.63
2022-11-09T00:46:05.794Z,99811.72
2022-11-09T00:48:32.515Z,99810.84
2022-11-09T00:51:01.051Z,99804.66
2022-11-09T00:53:28.422Z,99804.69
2022-11-09T00:55:59.540Z,99803.84
2022-11-09T00:58:30.913Z,99811.94
2022-11-09T01:00:59.256Z,99812.00
2022-11-09T01:03:26.689Z,99822.75
2022-11-09T01:05:53.384Z,99821.06
2022-11-09T01:08:20.147Z,99828.28
2022-11-09T01:10:48.337Z,99818.69
2022-11-09T01:13:17.570Z,99822.41
2022-11-09T01:15:47.543Z,99815.38
2022-11-09T01:18:15.506Z,99814.63
2022-11-09T01:20:43.967Z,99800.50
2022-11-09T01:23:12.046Z,99812.16
2022-11-09T01:25:38.851Z,99810.50
2022-11-09T01:28:07.254Z,99817.59
2022-11-09T01:30:38.942Z,99809.66
2022-11-09T01:33:06.589Z,99811.44
2022-11-09T01:35:35.554Z,99814.94
2022-11-09T01:38:03.784Z,99805.13
2022-11-09T01:40:31.724Z,99809.56
2022-11-09T01:42:59.496Z,99806.00
2022-11-09T01:45:30.256Z,99803.34
2022-11-09T01:48:23.290Z,99796.22
2022-11-09T01:50:58.524Z,99800.66
2022-11-09T01:53:29.947Z,99793.59
2022-11-09T01:55:59.886Z,99790.97
2022-11-09T01:58:32.625Z,99790.06
2022-11-09T02:01:00.934Z,99795.41
2022-11-09T02:03:39.126Z,99800.72
2022-11-09T02:06:08.652Z,99796.25
2022-11-09T02:08:35.649Z,99795.34
2022-11-09T02:11:14.830Z,99790.03
2022-11-09T02:13:49.341Z,99789.09
2022-11-09T02:16:18.407Z,99790.00
2022-11-09T02:18:52.517Z,99795.31
2022-11-09T02:21:20.689Z,99803.25
2022-11-09T02:23:47.436Z,99797.00
2022-11-09T02:26:21.928Z,99805.88
2022-11-09T02:28:48.862Z,99811.16
2022-11-09T02:31:17.427Z,99808.50
2022-11-09T02:33:59.865Z,99804.03
2022-11-09T02:36:26.532Z,99808.47
2022-11-09T02:38:55.947Z,99801.34
2022-11-09T02:41:24.249Z,99804.84
2022-11-09T02:43:53.619Z,99806.63
2022-11-09T02:46:35.304Z,99806.63
2022-11-09T02:49:02.768Z,99795.97
2022-11-09T02:51:30.078Z,99802.16
2022-11-09T02:53:56.863Z,99795.97
2022-11-09T02:56:24.206Z,99803.94
2022-11-09T02:58:53.498Z,99803.94
2022-11-09T03:01:20.091Z,99801.25
2022-11-09T03:03:46.943Z,99803.00
2022-11-09T03:06:13.667Z,99804.78
2022-11-09T03:08:43.202Z,99799.41
2022-11-09T03:11:10.547Z,99803.84
2022-11-09T03:13:37.486Z,99794.91
2022-11-09T03:16:08.640Z,99801.09
2022-11-09T03:18:39.359Z,99805.50
2022-11-09T03:21:07.071Z,99804.56
2022-11-09T03:23:33.946Z,99803.69
2022-11-09T03:26:02.001Z,99799.19
2022-11-09T03:28:28.955Z,99792.97
2022-11-09T03:30:56.743Z,99793.81
2022-11-09T03:33:23.585Z,99784.91
2022-11-09T03:35:51.279Z,99784.03
2022-11-09T03:38:18.854Z,99784.91
2022-11-09T03:40:46.635Z,99780.47
2022-11-09T03:43:13.203Z,99780.47
2022-11-09T03:45:40.549Z,99770.72
2022-11-09T03:48:07.326Z,99771.59
2022-11-09T03:50:34.756Z,99767.19
2022-11-09T03:53:02.231Z,99771.59
2022-11-09T03:55:29.273Z,99791.13
2022-11-09T03:57:55.806Z,99772.50
2022-11-09T04:00:23.614Z,99769.84
2022-11-09T04:02:50.429Z,99767.16
2022-11-09T04:05:17.205Z,99768.94
2022-11-09T04:07:52.273Z,99762.72
2022-11-09T04:10:19.727Z,99755.66
2022-11-09T04:12:46.832Z,99760.06
2022-11-09T04:15:13.893Z,99761.88
2022-11-09T04:17:40.654Z,99756.53
2022-11-09T04:20:08.908Z,99769.84
2022-11-09T04:22:35.671Z,99772.53
2022-11-09T04:25:02.658Z,99777.00
2022-11-09T04:27:30.036Z,99771.66
2022-11-09T04:29:56.955Z,99771.72
2022-11-09T04:32:23.572Z,99769.09
2022-11-09T04:34:50.090Z,99773.56
2022-11-09T04:37:16.735Z,99780.72
2022-11-09T04:39:43.226Z,99783.38
2022-11-09T04:42:09.822Z,99776.34
2022-11-09T04:44:36.330Z,99776.38
2022-11-09T04:47:02.898Z,99776.41
2022-11-09T04:49:29.469Z,99775.53
2022-11-09T04:51:56.031Z,99777.38
2022-11-09T04:54:22.665Z,99778.25
2022-11-09T04:56:49.203Z,99775.56
2022-11-09T04:59:15.683Z,99771.16
2022-11-09T05:01:42.223Z,99771.19
2022-11-09T05:04:08.836Z,99767.72
2022-11-09T05:06:35.583Z,99781.03
2022-11-09T05:09:04.955Z,99782.84
2022-11-09T05:11:32.952Z,99782.88
2022-11-09T05:14:00.084Z,99775.84
2022-11-09T05:16:27.775Z,99773.25
2022-11-09T05:18:54.683Z,99780.38
2022-11-09T05:21:21.814Z,99784.84
2022-11-09T05:24:00.628Z,99787.56
2022-11-09T05:26:32.311Z,99788.44
2022-11-09T05:29:01.082Z,99788.47
2022-11-09T05:31:29.108Z,99786.66
2022-11-09T05:33:55.889Z,99792.03
2022-11-09T05:36:23.143Z,99781.44
2022-11-09T05:38:49.975Z,99784.13
2022-11-09T05:41:16.699Z,99778.84
2022-11-09T05:43:47.099Z,99781.53
2022-11-09T05:46:14.844Z,99781.59
2022-11-09T05:48:42.373Z,99776.25
2022-11-09T05:51:11.227Z,99782.47
2022-11-09T05:53:42.349Z,99785.19
2022-11-09T05:56:12.948Z,99792.31
2022-11-09T05:58:41.254Z,99789.75
2022-11-09T06:01:13.145Z,99801.25
2022-11-09T06:03:40.476Z,99800.44
2022-11-09T06:06:09.076Z,99807.56
2022-11-09T06:08:36.079Z,99807.63
2022-11-09T06:11:05.923Z,99819.22
2022-11-09T06:13:32.920Z,99824.59
2022-11-09T06:16:01.158Z,99814.06
2022-11-09T06:18:29.914Z,99827.41
2022-11-09T06:20:58.691Z,99822.16
2022-11-09T06:23:29.570Z,99831.09
2022-11-09T06:26:06.340Z,99828.41
2022-11-09T06:28:33.862Z,99832.72
2022-11-09T06:31:01.795Z,99832.56
2022-11-09T06:33:30.916Z,99841.31
2022-11-09T06:35:58.346Z,99847.44
2022-11-09T06:38:28.605Z,99857.06
2022-11-09T06:40:57.183Z,99848.97
2022-11-09T06:43:24.740Z,99852.38
2022-11-09T06:45:52.268Z,99847.88
2022-11-09T06:48:19.174Z,99851.44
2022-11-09T06:50:45.937Z,99844.38
2022-11-09T06:53:15.345Z,99848.00
2022-11-09T06:55:47.167Z,99850.72
2022-11-09T06:58:16.630Z,99854.31
2022-11-09T07:00:44.400Z,99858.81
2022-11-09T07:03:19.481Z,99856.16
2022-11-09T07:05:47.013Z,99853.53
2022-11-09T07:08:14.939Z,99862.44
2022-11-09T07:10:41.838Z,99863.31
2022-11-09T07:13:09.227Z,99867.75
2022-11-09T07:15:37.200Z,99857.09
2022-11-09T07:18:05.955Z,99857.97
2022-11-09T07:20:32.784Z,99851.72
2022-11-09T07:22:59.337Z,99850.78
2022-11-09T07:25:27.417Z,99852.50
2022-11-09T07:27:54.615Z,99855.09
2022-11-09T07:30:21.308Z,99855.06
2022-11-09T07:33:17.950Z,99852.38
2022-11-09T07:35:34.896Z,99849.72
2022-11-09T07:38:02.317Z,99847.06
2022-11-09T07:40:30.097Z,99851.53
2022-11-09T07:43:00.956Z,99848.84
2022-11-09T07:45:29.209Z,99847.03
2022-11-09T07:48:00.519Z,99855.84
2022-11-09T07:50:28.845Z,99857.63
2022-11-09T07:52:56.823Z,99854.97
2022-11-09T07:55:24.149Z,99854.97
2022-11-09T07:57:59.317Z,99857.56
2022-11-09T08:00:27.885Z,99849.56
2022-11-09T08:02:55.289Z,99855.63
2022-11-09T08:05:22.717Z,99851.09
2022-11-09T08:07:54.795Z,99858.19
2022-11-09T08:10:21.670Z,99855.44
2022-11-09T08:12:56.912Z,99863.34
2022-11-09T08:15:23.899Z,99869.50
2022-11-09T08:17:50.682Z,99864.97
2022-11-09T08:20:18.052Z,99867.56
2022-11-09T08:22:45.766Z,99871.00
2022-11-09T08:25:13.616Z,99868.22
2022-11-09T08:27:40.723Z,99872.56
2022-11-09T08:30:19.372Z,99884.03
2022-11-09T08:32:46.724Z,99882.13
2022-11-09T08:35:17.944Z,99887.34
2022-11-09T08:37:46.795Z,99877.47
2022-11-09T08:40:15.498Z,99896.97
2022-11-09T08:42:42.373Z,99883.53
2022-11-09T08:45:09.566Z,99882.56
2022-11-09T08:47:36.377Z,99890.47
2022-11-09T08:50:04.540Z,99887.72
2022-11-09T08:52:32.022Z,99894.75
2022-11-09T08:54:58.875Z,99889.38
2022-11-09T08:57:26.226Z,99883.13
2022-11-09T08:59:52.787Z,99874.13
2022-11-09T09:02:20.587Z,99882.00
2022-11-09T09:04:47.261Z,99885.66
2022-11-09T09:07:14.423Z,99881.13
2022-11-09T09:09:41.356Z,99888.25
2022-11-09T09:12:09.482Z,99888.19
2022-11-09T09:14:36.458Z,99897.03
2022-11-09T09:17:03.625Z,99887.25
2022-11-09T09:19:30.391Z,99889.91
2022-11-09T09:21:56.992Z,99896.94
2022-11-09T09:24:23.584Z,99900.50
2022-11-09T09:26:50.430Z,99903.19
2022-11-09T09:29:19.686Z,99904.94
2022-11-09T09:31:46.341Z,99907.63
2022-11-09T09:34:14.095Z,99903.25
2022-11-09T09:36:46.313Z,99903.91
2022-11-09T09:39:15.130Z,99903.72
2022-11-09T09:41:51.261Z,99900.03
2022-11-09T09:44:49.750Z,99897.16
2022-11-09T09:47:22.110Z,99904.13
2022-11-09T09:49:59.387Z,99902.25
2022-11-09T09:52:31.446Z,99907.31
2022-11-09T09:55:09.378Z,99907.00
2022-11-09T09:57:41.761Z,99913.84
2022-11-09T10:00:26.063Z,99908.25
2022-11-09T10:02:53.169Z,99904.53
2022-11-09T10:05:28.150Z,99916.94
2022-11-09T10:08:15.510Z,99911.50
2022-11-09T10:11:03.525Z,99908.44
2022-11-09T10:13:39.339Z,99895.13
2022-11-09T10:16:18.216Z,99905.81
2022-11-09T10:19:09.548Z,99904.75
2022-11-09T10:21:53.159Z,99895.25
2022-11-09T10:24:48.593Z,99896.84
2022-11-09T10:27:36.326Z,99885.44
2022-11-09T10:30:14.977Z,99889.22
2022-11-09T10:32:48.792Z,99877.81
2022-11-09T10:35:26.401Z,99920.13
2022-11-09T10:37:55.170Z,99937.09
2022-11-09T10:40:41.055Z,99922.16
2022-11-09T10:43:26.167Z,99929.09
2022-11-09T10:46:11.351Z,99928.63
2022-11-09T10:48:56.602Z,99923.66
2022-11-09T10:51:46.559Z,99923.19
2022-11-09T10:54:38.009Z,99920.88
2022-11-09T10:57:24.921Z,99928.00
2022-11-09T11:00:19.215Z,99930.72
2022-11-09T11:03:18.067Z,99928.25
2022-11-09T11:06:10.392Z,99934.59
2022-11-09T11:08:58.293Z,99923.22
2022-11-09T11:11:43.930Z,99938.50
2022-11-09T11:14:31.758Z,99930.47
2022-11-09T11:17:36.357Z,99919.59
2022-11-09T11:20:35.679Z,99926.97
2022-11-09T11:23:23.963Z,99936.00
2022-11-09T11:26:21.929Z,99924.56
2022-11-09T11:29:22.586Z,99951.19
2022-11-09T11:32:16.108Z,99937.03
2022-11-09T11:35:03.835Z,99944.97
2022-11-09T11:38:04.045Z,99939.63
2022-11-09T11:41:24.455Z,99932.56
2022-11-09T11:44:18.665Z,99924.31
2022-11-09T11:47:22.987Z,99932.09
2022-11-09T11:50:29.057Z,99934.66
2022-11-09T11:53:56.383Z,99931.28
2022-11-09T11:57:10.913Z,99929.66
2022-11-09T11:59:56.037Z,99934.00
2022-11-09T12:03:08.539Z,99920.59
2022-11-09T12:06:02.413Z,99917.94
2022-11-09T12:08:53.922Z,99907.25
2022-11-09T12:11:51.322Z,99913.31
2022-11-09T12:14:46.505Z,99913.28
2022-11-09T12:17:49.825Z,99911.38
2022-11-09T12:21:14.387Z,99911.81
2022-11-09T12:24:34.613Z,99907.91
2022-11-09T12:27:39.697Z,99910.28
2022-11-09T12:30:37.110Z,99917.31
2022-11-09T12:33:43.221Z,99916.34
2022-11-09T12:36:47.134Z,99911.31
2022-11-09T12:40:00.277Z,99909.69
2022-11-09T12:42:56.518Z,99921.47
2022-11-09T12:45:43.590Z,99922.53
2022-11-09T12:48:32.009Z,99915.56
2022-11-09T12:51:18.119Z,99927.22
2022-11-09T12:54:11.335Z,99924.78
2022-11-09T12:57:01.222Z,99906.44
2022-11-09T12:59:48.658Z,99942.88
2022-11-09T13:03:07.673Z,99926.16
2022-11-09T13:06:19.254Z,99922.78
2022-11-09T13:09:16.931Z,99921.13
2022-11-09T13:12:32.514Z,99921.09
2022-11-09T13:15:24.487Z,99920.16
2022-11-09T13:18:26.893Z,99924.56
2022-11-09T13:21:23.905Z,99928.06
2022-11-09T13:24:51.369Z,99922.63
2022-11-09T13:27:42.277Z,99923.34
2022-11-09T13:30:42.336Z,99922.41
2022-11-09T13:33:29.044Z,99923.31
2022-11-09T13:36:17.440Z,99920.59
2022-11-09T13:39:37.942Z,99926.66
2022-11-09T13:42:32.797Z,99925.66
2022-11-09T13:45:35.588Z,99935.31
2022-11-09T13:48:45.095Z,99932.53
2022-11-09T13:51:33.264Z,99928.97
2022-11-09T13:54:44.015Z,99934.25
2022-11-09T13:57:32.478Z,99941.31
2022-11-09T14:00:23.585Z,99930.47
2022-11-09T14:03:27.157Z,99948.91
2022-11-09T14:06:13.552Z,99952.41
2022-11-09T14:09:01.013Z,99939.19
2022-11-09T14:11:57.175Z,99952.59
2022-11-09T14:14:58.998Z,99939.38
2022-11-09T14:17:45.629Z,99949.28
2022-11-09T14:21:08.755Z,99951.22
2022-11-09T14:23:54.912Z,99957.50
2022-11-09T14:26:40.064Z,99967.25
2022-11-09T14:29:26.556Z,99958.44
2022-11-09T14:32:30.303Z,99965.50
2022-11-09T14:35:21.375Z,99963.66
2022-11-09T14:38:22.078Z,99960.91
2022-11-09T14:41:22.735Z,99955.50
2022-11-09T14:44:15.564Z,99973.31
2022-11-09T14:47:00.712Z,99992.00
2022-11-09T14:49:46.867Z,99996.44
2022-11-09T14:52:32.187Z,99993.81
2022-11-09T14:55:19.856Z,99991.25
2022-11-09T14:58:05.077Z,99995.78
2022-11-09T15:01:14.862Z,99998.53
2022-11-09T15:04:21.493Z,99998.53
2022-11-09T15:07:08.142Z,100000.31
2022-11-09T15:10:21.065Z,99995.00
2022-11-09T15:13:06.535Z,99995.91
2022-11-09T15:15:54.464Z,100003.91
2022-11-09T15:18:45.124Z,100006.59
2022-11-09T15:21:30.359Z,100002.25
2022-11-09T15:24:18.114Z,100002.44
2022-11-09T15:27:03.566Z,99998.16
2022-11-09T15:29:48.709Z,100000.06
2022-11-09T15:32:35.602Z,100006.44
2022-11-09T15:35:21.574Z,100003.00
2022-11-09T15:38:26.458Z,100002.22
2022-11-09T15:41:17.137Z,100000.56
2022-11-09T15:44:02.282Z,100009.47
2022-11-09T15:46:53.104Z,100012.19
2022-11-09T15:49:38.436Z,100006.94
2022-11-09T15:52:23.799Z,100016.75
2022-11-09T15:55:13.081Z,100015.91
2022-11-09T15:57:58.301Z,100009.78
2022-11-09T16:00:44.215Z,100023.97
2022-11-09T16:03:29.593Z,100022.25
2022-11-09T16:06:23.588Z,100036.44
2022-11-09T16:09:09.056Z,100032.91
2022-11-09T16:11:54.585Z,100033.81
2022-11-09T16:14:39.823Z,100031.19
2022-11-09T16:17:24.962Z,100038.25
2022-11-09T16:20:10.252Z,100039.16
2022-11-09T16:22:55.661Z,100044.47
2022-11-09T16:25:40.894Z,100050.69
2022-11-09T16:28:26.326Z,100048.97
2022-11-09T16:31:12.931Z,100048.97
2022-11-09T16:33:57.892Z,100061.41
2022-11-09T16:36:48.065Z,100069.34
2022-11-09T16:39:35.922Z,100067.59
2022-11-09T16:42:21.352Z,100059.66
2022-11-09T16:45:10.680Z,100069.38
2022-11-09T16:47:56.990Z,100072.91
2022-11-09T16:50:42.426Z,100081.75
2022-11-09T16:53:28.231Z,100080.00
2022-11-09T16:56:15.091Z,100069.38
2022-11-09T16:59:00.974Z,100079.13
2022-11-09T17:02:12.109Z,100082.66
2022-11-09T17:04:57.348Z,100091.53
2022-11-09T17:07:43.047Z,100083.56
2022-11-09T17:10:28.550Z,100087.09
2022-11-09T17:13:14.080Z,100100.38
2022-11-09T17:16:05.140Z,100100.38
2022-11-09T17:18:54.016Z,100102.16
2022-11-09T17:21:39.477Z,100103.91
2022-11-09T17:24:25.753Z,100116.28
2022-11-09T17:27:11.925Z,100109.22
2022-11-09T17:29:57.365Z,100110.09
2022-11-09T17:32:43.013Z,100112.75
2022-11-09T17:35:28.891Z,100110.13
2022-11-09T17:38:14.250Z,100111.88
2022-11-09T17:41:10.572Z,100102.19
2022-11-09T17:43:55.709Z,100112.75
2022-11-09T17:46:40.975Z,100124.25
2022-11-09T17:49:25.990Z,100108.28
2022-11-09T17:52:11.156Z,100117.16
2022-11-09T17:54:56.855Z,100114.47
2022-11-09T17:57:42.411Z,100119.78
2022-11-09T18:00:27.573Z,100130.41
2022-11-09T18:03:12.853Z,100134.84
2022-11-09T18:05:58.149Z,100140.13
2022-11-09T18:08:44.288Z,100142.81
2022-11-09T18:11:33.736Z,100141.03
2022-11-09T18:14:19.116Z,100149.88
2022-11-09T18:17:04.279Z,100157.84
2022-11-09T18:19:49.249Z,100153.44
2022-11-09T18:22:34.614Z,100164.94
2022-11-09T18:25:20.966Z,100159.63
2022-11-09T18:28:06.127Z,100157.88
2022-11-09T18:30:51.356Z,100157.84
2022-11-09T18:33:36.806Z,100168.47
2022-11-09T18:36:22.076Z,100166.69
2022-11-09T18:39:07.453Z,100180.88
2022-11-09T18:41:54.489Z,100176.44
2022-11-09T18:44:39.997Z,100171.13
2022-11-09T18:47:25.582Z,100164.06
2022-11-09T18:50:10.984Z,100172.00
2022-11-09T18:52:56.333Z,100172.91
2022-11-09T18:55:41.257Z,100186.16
2022-11-09T18:58:27.699Z,100181.72
2022-11-09T19:01:13.617Z,100180.84
2022-11-09T19:04:01.698Z,100183.53
2022-11-09T19:06:47.185Z,100187.03
2022-11-09T19:09:35.785Z,100183.50
2022-11-09T19:12:21.379Z,100196.75
2022-11-09T19:15:07.511Z,100203.84
2022-11-09T19:17:52.485Z,100210.00
2022-11-09T19:20:39.109Z,100198.50
2022-11-09T19:23:28.391Z,100206.47
2022-11-09T19:26:16.815Z,100210.00
2022-11-09T19:29:02.285Z,100209.09
2022-11-09T19:31:48.683Z,100209.97
2022-11-09T19:34:33.903Z,100216.16
2022-11-09T19:37:18.987Z,100224.13
2022-11-09T19:40:04.766Z,100221.47
2022-11-09T19:42:50.443Z,100221.47
2022-11-09T19:45:42.690Z,100225.88
2022-11-09T19:48:28.580Z,100239.13
2022-11-09T19:51:15.768Z,100231.19
2022-11-09T19:54:02.411Z,100236.44
2022-11-09T19:56:47.879Z,100242.59
2022-11-09T19:59:33.308Z,100243.50
2022-11-09T20:02:18.261Z,100238.19
2022-11-09T20:05:03.918Z,100238.16
2022-11-09T20:07:49.202Z,100256.69
2022-11-09T20:10:37.828Z,100264.66
2022-11-09T20:13:24.456Z,100272.63
2022-11-09T20:16:10.450Z,100283.22
2022-11-09T20:18:56.464Z,100284.06
2022-11-09T20:21:42.067Z,100288.50
2022-11-09T20:24:27.317Z,100287.66
2022-11-09T20:27:12.454Z,100295.56
2022-11-09T20:29:57.940Z,100281.44
2022-11-09T20:32:43.112Z,100301.72
2022-11-09T20:35:28.439Z,100289.38
2022-11-09T20:38:13.803Z,100290.22
2022-11-09T20:41:01.233Z,100299.97
2022-11-09T20:43:46.905Z,100303.47
2022-11-09T20:46:36.126Z,100314.97
2022-11-09T20:49:22.265Z,100322.06
2022-11-09T20:52:07.524Z,100316.78
2022-11-09T20:54:52.846Z,100312.38
2022-11-09T20:57:37.911Z,100315.03
2022-11-09T21:00:24.549Z,100327.41
2022-11-09T21:03:10.124Z,100322.09
2022-11-09T21:05:59.147Z,100325.63
2022-11-09T21:08:50.388Z,100338.03
2022-11-09T21:11:35.370Z,100352.19
2022-11-09T21:14:20.739Z,100344.25
2022-11-09T21:17:05.675Z,100349.59
2022-11-09T21:19:51.503Z,100352.25
2022-11-09T21:22:55.158Z,100360.22
2022-11-09T21:26:01.386Z,100360.22
2022-11-09T21:29:05.307Z,100371.75
2022-11-09T21:31:50.479Z,100374.41
2022-11-09T21:34:37.017Z,100370.88
2022-11-09T21:37:22.557Z,100376.19
2022-11-09T21:40:08.378Z,100376.22
2022-11-09T21:42:55.500Z,100387.72
2022-11-09T21:45:41.596Z,100379.78
2022-11-09T21:48:27.246Z,100393.03
2022-11-09T21:51:12.232Z,100395.72
2022-11-09T21:53:57.255Z,100402.78
2022-11-09T21:56:42.555Z,100396.59
2022-11-09T21:59:27.868Z,100402.81
2022-11-09T22:02:12.897Z,100402.81
2022-11-09T22:04:58.023Z,100408.97
2022-11-09T22:07:43.307Z,100412.53
2022-11-09T22:10:28.541Z,100404.53
2022-11-09T22:13:33.371Z,100408.09
2022-11-09T22:16:23.576Z,100416.94
2022-11-09T22:19:27.276Z,100413.41
2022-11-09T22:22:13.533Z,100417.81
2022-11-09T22:24:58.754Z,100421.38
2022-11-09T22:27:43.917Z,100436.44
2022-11-09T22:30:29.074Z,100433.78
2022-11-09T22:33:15.461Z,100432.88
2022-11-09T22:36:05.769Z,100443.50
2022-11-09T22:38:51.177Z,100448.81
2022-11-09T22:41:36.272Z,100449.72
2022-11-09T22:44:21.565Z,100455.91
2022-11-09T22:47:06.675Z,100462.97
2022-11-09T22:49:51.591Z,100472.69
2022-11-09T22:52:36.621Z,100474.50
2022-11-09T22:55:21.667Z,100473.59
2022-11-09T22:58:06.819Z,100485.09
2022-11-09T23:00:52.075Z,100491.28
2022-11-09T23:03:37.698Z,100485.97
2022-11-09T23:06:23.823Z,100488.63
2022-11-09T23:09:09.261Z,100500.13
2022-11-09T23:11:54.403Z,100497.47
2022-11-09T23:14:58.048Z,100495.69
2022-11-09T23:18:01.889Z,100495.69
2022-11-09T23:20:47.967Z,100494.81
2022-11-09T23:23:33.399Z,100507.19
2022-11-09T23:26:19.388Z,100501.91
2022-11-09T23:29:04.433Z,100506.31
2022-11-09T23:31:49.854Z,100509.81
2022-11-09T23:34:35.150Z,100508.97
2022-11-09T23:37:20.203Z,100516.03
2022-11-09T23:40:06.631Z,100516.88
2022-11-09T23:42:51.648Z,100525.75
2022-11-09T23:45:38.022Z,100524.84
2022-11-09T23:48:23.009Z,100530.16
2022-11-09T23:51:09.295Z,100523.97
2022-11-09T23:53:54.258Z,100537.22
2022-11-09T23:56:39.299Z,100531.91
2022-11-09T23:59:25.369Z,100536.34
